Time;durP1;ratioP1;P1;durP2;ratioP2;P2;SDS_P1;SDS_P2;PMS_P1;PMS_P2;Temp;Humidity;BMP_temperature;BMP_pressure;BME280_temperature;BME280_humidity;BME280_pressure;Samples;Min_cycle;Max_cycle;Signal;HPM_P1;HPM_P2
2022/01/14 00:02:18;;;;;;;26.85;14.15;;;9.80;55.50;;;;;;5079261;28;20463;-91
2022/01/14 00:04:44;;;;;;;26.17;14.18;;;9.60;56.10;;;;;;5079107;28;20031;-90
2022/01/14 00:07:10;;;;;;;25.95;13.93;;;9.80;55.60;;;;;;5079288;28;20016;-91
2022/01/14 00:09:38;;;;;;;27.60;13.63;;;9.50;56.10;;;;;;5078989;28;20048;-89
2022/01/14 00:12:10;;;;;;;26.38;14.15;;;9.50;56.10;;;;;;5079229;28;20027;-93
2022/01/14 00:14:39;;;;;;;29.60;13.82;;;9.40;56.70;;;;;;5078929;28;20402;-93
2022/01/14 00:17:07;;;;;;;28.23;13.68;;;9.70;56.20;;;;;;5079155;28;20027;-94
2022/01/14 00:19:33;;;;;;;28.13;13.60;;;9.40;56.40;;;;;;5078886;28;20036;-91
2022/01/14 00:22:04;;;;;;;27.15;13.38;;;9.20;56.80;;;;;;5079027;28;20483;-92
2022/01/14 00:33:09;;;;;;;29.48;14.68;;;9.10;56.70;;;;;;5014822;28;20112;-89
2022/01/14 00:35:37;;;;;;;24.10;13.02;;;8.80;57.50;;;;;;5014972;28;20084;-89
2022/01/14 00:38:04;;;;;;;24.80;13.38;;;8.80;57.50;;;;;;5014851;28;20442;-90
2022/01/14 00:40:33;;;;;;;28.15;13.70;;;8.80;57.50;;;;;;5014756;28;20018;-90
2022/01/14 00:42:59;;;;;;;28.58;13.77;;;9.00;57.50;;;;;;5014704;28;20030;-92
2022/01/14 00:45:25;;;;;;;27.75;13.68;;;8.90;57.40;;;;;;5014694;28;20040;-90
2022/01/14 00:47:51;;;;;;;25.88;14.30;;;8.90;57.40;;;;;;5014664;28;20022;-91
2022/01/14 00:50:18;;;;;;;26.85;13.75;;;8.90;57.40;;;;;;5014500;28;20474;-90
2022/01/14 00:52:46;;;;;;;27.85;13.60;;;8.40;58.40;;;;;;5014313;28;20085;-92
2022/01/14 00:55:14;;;;;;;30.13;14.57;;;8.10;59.30;;;;;;5014384;28;20512;-92
2022/01/14 01:00:34;;;;;;;25.90;13.10;;;8.10;59.40;;;;;;5014645;28;20021;-90
2022/01/14 01:03:00;;;;;;;26.30;13.35;;;8.50;59.10;;;;;;5014345;28;20061;-87
2022/01/14 01:05:29;;;;;;;25.83;13.43;;;8.50;58.10;;;;;;5055514;28;20071;-91
2022/01/14 01:08:10;;;;;;;27.88;13.75;;;8.10;59.30;;;;;;5057846;28;20036;-89
2022/01/14 01:10:45;;;;;;;25.58;13.38;;;8.20;59.00;;;;;;5058241;28;20063;-94
2022/01/14 01:13:19;;;;;;;26.42;13.57;;;8.50;58.60;;;;;;5061199;28;20547;-88
2022/01/14 01:15:45;;;;;;;27.08;14.38;;;8.40;58.50;;;;;;5074742;28;20070;-90
2022/01/14 01:18:11;;;;;;;28.52;14.40;;;8.40;59.00;;;;;;5074844;28;20028;-91
2022/01/14 01:20:37;;;;;;;28.15;13.60;;;8.40;59.20;;;;;;5075348;28;20348;-90
2022/01/14 01:23:04;;;;;;;28.25;14.13;;;8.30;59.10;;;;;;5074454;28;20035;-89
2022/01/14 01:25:38;;;;;;;28.58;14.25;;;8.10;59.70;;;;;;5074495;28;20021;-88
2022/01/14 01:28:04;;;;;;;29.30;13.80;;;8.00;59.90;;;;;;5077819;28;20122;-93
2022/01/14 01:32:57;;;;;;;27.00;13.05;;;8.20;59.20;;;;;;5095675;28;20502;-90
2022/01/14 01:35:23;;;;;;;26.67;13.50;;;8.10;59.80;;;;;;5077529;28;20037;-89
2022/01/14 01:37:49;;;;;;;29.27;14.35;;;8.30;59.30;;;;;;5077656;28;20032;-93
2022/01/14 01:40:15;;;;;;;26.73;14.40;;;8.00;59.60;;;;;;5078229;28;20463;-89
2022/01/14 01:42:44;;;;;;;30.35;15.27;;;7.70;60.40;;;;;;5078463;28;20077;-87
2022/01/14 01:45:12;;;;;;;28.45;14.60;;;7.60;61.10;;;;;;5077511;28;20123;-92
2022/01/14 01:47:39;;;;;;;30.75;15.35;;;7.70;60.80;;;;;;5077336;28;20435;-89
2022/01/14 01:50:10;;;;;;;25.48;13.27;;;7.60;60.90;;;;;;5077271;28;20024;-90
2022/01/14 01:52:39;;;;;;;29.33;14.57;;;7.70;60.80;;;;;;5077207;28;20024;-90
2022/01/14 01:55:06;;;;;;;27.33;14.25;;;7.50;61.30;;;;;;5077741;28;20479;-88
2022/01/14 01:57:32;;;;;;;29.25;14.57;;;7.10;61.80;;;;;;5077090;28;20065;-92
2022/01/14 01:59:58;;;;;;;26.17;13.68;;;7.00;62.60;;;;;;5091665;28;20054;-92
2022/01/14 02:02:23;;;;;;;27.63;14.02;;;7.30;62.00;;;;;;5097313;28;20031;-90
2022/01/14 02:04:49;;;;;;;26.20;13.88;;;7.30;61.80;;;;;;5097261;28;20474;-93
2022/01/14 02:07:15;;;;;;;26.60;13.05;;;7.40;62.00;;;;;;5097215;28;20020;-88
2022/01/14 02:09:41;;;;;;;28.92;14.57;;;7.80;60.80;;;;;;5086046;28;20056;-89
2022/01/14 02:12:10;;;;;;;26.25;13.40;;;7.70;61.00;;;;;;5077070;28;20024;-91
2022/01/14 02:22:10;;;;;;;27.83;14.15;;;7.40;61.40;;;;;;5095010;28;20016;-89
2022/01/14 02:22:56;;;;;;;27.40;14.38;;;7.30;61.50;;;;;;5094583;28;20091;-92
2022/01/14 02:25:28;;;;;;;32.30;14.57;;;7.40;61.70;;;;;;5076984;28;20024;-93
2022/01/14 02:28:07;;;;;;;29.20;14.95;;;7.30;61.10;;;;;;5056751;28;20750;-91
2022/01/14 02:32:42;;;;;;;28.25;14.32;;;7.10;61.60;;;;;;5083020;27;1511423;-88
2022/01/14 02:35:09;;;;;;;29.83;14.75;;;7.10;61.90;;;;;;5094029;28;20471;-90
2022/01/14 02:37:34;;;;;;;29.98;14.73;;;7.00;62.30;;;;;;5093730;28;20077;-91
2022/01/14 02:40:00;;;;;;;28.02;13.73;;;6.80;62.80;;;;;;5093513;28;20155;-91
2022/01/14 02:42:26;;;;;;;32.10;16.05;;;6.50;63.50;;;;;;5093506;28;20032;-95
2022/01/14 02:44:57;;;;;;;28.52;15.10;;;6.60;63.20;;;;;;5093928;28;20433;-91
2022/01/14 02:47:22;;;;;;;26.73;14.70;;;6.70;62.80;;;;;;5093831;28;20081;-93
2022/01/14 02:49:48;;;;;;;29.95;15.57;;;6.80;63.10;;;;;;5094677;28;20024;-91
2022/01/14 02:52:40;;;;;;;30.33;15.77;;;6.70;62.60;;;;;;5102809;28;20119;-91
2022/01/14 02:55:15;;;;;;;30.48;14.90;;;6.40;63.20;;;;;;5073563;28;20052;-90
2022/01/14 02:57:47;;;;;;;28.73;15.05;;;6.30;63.50;;;;;;5073422;28;20028;-90
2022/01/14 03:00:14;;;;;;;30.13;15.05;;;6.60;63.20;;;;;;5091403;28;20022;-90
2022/01/14 03:02:43;;;;;;;28.27;14.85;;;6.70;63.00;;;;;;5090915;28;20032;-89
2022/01/14 03:05:10;;;;;;;29.63;14.95;;;6.90;62.60;;;;;;5073480;28;20020;-91
2022/01/14 03:07:38;;;;;;;33.88;16.30;;;6.70;62.90;;;;;;5073510;28;20096;-88
2022/01/14 03:10:05;;;;;;;32.10;15.73;;;6.70;63.20;;;;;;5073619;28;20081;-89
2022/01/14 03:12:30;;;;;;;32.47;15.82;;;6.50;63.20;;;;;;5074018;28;20535;-89
2022/01/14 03:14:56;;;;;;;33.15;15.48;;;6.30;64.00;;;;;;5072862;28;20033;-86
2022/01/14 03:17:22;;;;;;;31.23;14.73;;;6.40;64.20;;;;;;5074452;28;20123;-86
2022/01/14 03:19:50;;;;;;;30.23;15.35;;;6.50;63.70;;;;;;5111699;28;20024;-92
2022/01/14 03:22:24;;;;;;;30.08;15.57;;;6.70;63.60;;;;;;5077602;28;20031;-89
2022/01/14 03:27:15;;;;;;;31.13;16.02;;;6.30;63.80;;;;;;5091141;28;20017;-88
2022/01/14 03:29:41;;;;;;;31.35;15.75;;;6.20;64.30;;;;;;5072700;28;20024;-87
2022/01/14 03:32:07;;;;;;;29.73;15.05;;;6.10;64.60;;;;;;5072273;28;20071;-88
2022/01/14 03:34:34;;;;;;;30.67;16.67;;;6.10;64.50;;;;;;5072510;28;20467;-91
2022/01/14 03:37:00;;;;;;;28.42;15.73;;;6.20;65.10;;;;;;5072312;28;20032;-91
2022/01/14 03:39:26;;;;;;;30.23;14.90;;;6.40;64.40;;;;;;5090642;28;20380;-91
2022/01/14 03:41:52;;;;;;;29.55;15.80;;;6.60;63.70;;;;;;5072030;28;20489;-91
2022/01/14 03:44:18;;;;;;;31.70;15.27;;;6.70;63.70;;;;;;5058143;28;20471;-86
2022/01/14 03:46:44;;;;;;;28.08;14.30;;;6.60;64.00;;;;;;5059107;28;20028;-81
2022/01/14 03:49:10;;;;;;;26.83;13.88;;;6.50;64.30;;;;;;5076603;28;20154;-91
2022/01/14 03:51:36;;;;;;;31.60;15.52;;;6.60;64.40;;;;;;5058853;28;20117;-89
2022/01/14 03:54:02;;;;;;;31.77;15.80;;;6.60;64.10;;;;;;5058918;28;20115;-90
2022/01/14 03:56:27;;;;;;;29.42;14.52;;;6.60;64.40;;;;;;5058914;28;20028;-89
2022/01/14 03:59:37;;;;;;;27.20;14.10;;;6.60;63.90;;;;;;5072173;28;20425;-92
2022/01/14 04:02:03;;;;;;;30.88;15.15;;;6.60;64.40;;;;;;5070400;28;20029;-89
2022/01/14 04:04:30;;;;;;;30.70;15.25;;;6.60;64.20;;;;;;5072267;28;20025;-90
2022/01/14 04:06:56;;;;;;;27.88;14.65;;;6.40;65.40;;;;;;5071109;28;20033;-92
2022/01/14 04:09:21;;;;;;;33.85;14.60;;;6.90;64.00;;;;;;5070604;28;20021;-93
2022/01/14 04:11:47;;;;;;;30.30;15.10;;;6.90;64.00;;;;;;5071143;28;20032;-91
2022/01/14 04:16:51;;;;;;;28.40;13.85;;;7.30;63.10;;;;;;5071794;28;20033;-84
2022/01/14 04:19:17;;;;;;;30.25;14.40;;;7.30;63.00;;;;;;5070391;28;20480;-92
2022/01/14 04:21:42;;;;;;;29.13;15.25;;;6.90;64.60;;;;;;5069972;28;20071;-86
2022/01/14 04:24:08;;;;;;;27.42;13.93;;;6.70;65.00;;;;;;5070104;28;20029;-94
2022/01/14 04:26:34;;;;;;;27.85;14.70;;;7.00;64.30;;;;;;5063906;28;20060;-92
2022/01/14 04:29:18;;;;;;;28.40;14.63;;;6.60;65.20;;;;;;5050347;28;20464;-88
2022/01/14 04:31:44;;;;;;;28.80;14.60;;;6.60;65.90;;;;;;5050342;28;20500;-91
2022/01/14 04:34:09;;;;;;;27.52;14.43;;;6.80;65.90;;;;;;5050226;28;20033;-95
2022/01/14 04:36:51;;;;;;;29.77;14.90;;;7.10;64.10;;;;;;5056430;28;20036;-86
2022/01/14 04:39:17;;;;;;;27.33;13.50;;;7.20;63.90;;;;;;5070293;28;20124;-91
2022/01/14 04:41:43;;;;;;;26.73;13.77;;;7.20;64.20;;;;;;5069573;28;20166;-89
2022/01/14 04:44:08;;;;;;;27.35;14.07;;;7.50;63.50;;;;;;5061477;28;20476;-85
2022/01/14 04:46:48;;;;;;;27.63;14.20;;;7.80;62.50;;;;;;5069444;28;20107;-88
2022/01/14 04:49:13;;;;;;;30.10;14.27;;;7.80;62.50;;;;;;5069490;28;20380;-85
2022/01/14 04:51:43;;;;;;;29.50;15.35;;;8.00;62.10;;;;;;5051450;28;20040;-95
2022/01/14 04:55:51;;;;;;;25.23;13.45;;;8.00;61.70;;;;;;5086175;27;1444054;-92
2022/01/14 04:58:17;;;;;;;27.63;13.20;;;8.00;61.80;;;;;;5093922;28;20061;-86
2022/01/14 05:00:43;;;;;;;29.58;15.50;;;7.90;62.00;;;;;;5093509;28;20024;-86
2022/01/14 05:03:09;;;;;;;26.15;13.20;;;7.70;62.70;;;;;;5094094;28;20122;-88
2022/01/14 05:05:39;;;;;;;26.13;13.02;;;7.50;63.60;;;;;;5093864;28;20024;-90
2022/01/14 05:08:10;;;;;;;29.80;14.93;;;7.80;62.70;;;;;;5094737;28;20385;-85
2022/01/14 05:10:59;;;;;;;29.00;13.75;;;7.30;64.10;;;;;;5084173;28;20119;-92
2022/01/14 05:13:24;;;;;;;28.73;13.80;;;7.50;63.50;;;;;;5092365;28;20043;-92
2022/01/14 05:15:52;;;;;;;25.58;12.85;;;7.50;63.60;;;;;;5096228;28;20123;-96
2022/01/14 05:18:18;;;;;;;24.15;12.95;;;7.80;62.60;;;;;;5114458;28;20026;-88
2022/01/14 05:20:43;;;;;;;27.20;12.77;;;7.90;62.10;;;;;;5084082;28;20126;-88
2022/01/14 05:23:09;;;;;;;25.75;12.88;;;7.80;62.60;;;;;;5087161;28;20051;-84
2022/01/14 05:25:38;;;;;;;25.30;12.90;;;7.90;62.70;;;;;;5074889;28;20016;-87
2022/01/14 05:28:04;;;;;;;27.75;12.88;;;7.60;63.20;;;;;;5087625;28;20063;-94
2022/01/14 05:30:33;;;;;;;26.67;13.13;;;7.40;64.20;;;;;;5077622;28;20375;-90
2022/01/14 05:32:58;;;;;;;26.13;13.30;;;7.50;64.00;;;;;;5078539;28;20032;-96
2022/01/14 05:35:26;;;;;;;27.80;13.50;;;7.40;64.30;;;;;;5078888;28;20044;-90
2022/01/14 05:37:55;;;;;;;28.67;13.65;;;7.40;63.90;;;;;;5081957;28;20047;-90
2022/01/14 05:40:25;;;;;;;25.67;12.90;;;7.70;64.10;;;;;;5060545;28;20392;-93
2022/01/14 05:42:51;;;;;;;25.63;13.10;;;7.50;63.40;;;;;;5091464;28;20024;-92
2022/01/14 05:45:17;;;;;;;27.80;12.75;;;7.20;64.40;;;;;;5080164;28;20023;-90
2022/01/14 05:47:43;;;;;;;29.02;14.60;;;7.10;64.50;;;;;;5096851;28;20159;-89
2022/01/14 05:50:12;;;;;;;41.72;19.30;;;7.10;65.10;;;;;;5097724;28;20020;-91
2022/01/14 05:52:39;;;;;;;29.20;14.00;;;7.00;65.30;;;;;;5078997;28;20562;-88
2022/01/14 05:55:05;;;;;;;31.63;15.40;;;6.60;66.40;;;;;;5093141;28;20123;-85
2022/01/14 05:57:34;;;;;;;26.17;12.77;;;6.70;67.00;;;;;;5093298;28;20024;-89
2022/01/14 06:00:04;;;;;;;26.20;12.52;;;6.90;65.80;;;;;;5093243;28;20028;-86
2022/01/14 06:02:30;;;;;;;28.63;14.60;;;7.10;65.20;;;;;;5093908;28;20032;-92
2022/01/14 06:04:58;;;;;;;25.83;13.02;;;7.10;65.50;;;;;;5093024;28;20081;-90
2022/01/14 06:07:24;;;;;;;27.45;14.18;;;7.10;65.50;;;;;;5079111;28;20118;-87
2022/01/14 06:09:52;;;;;;;23.17;12.18;;;7.40;64.60;;;;;;5079896;28;20114;-94
2022/01/14 06:12:18;;;;;;;26.05;13.40;;;7.10;65.20;;;;;;5080117;28;20077;-90
2022/01/14 06:14:43;;;;;;;25.02;12.20;;;7.20;65.10;;;;;;5080088;28;20032;-87
2022/01/14 06:17:09;;;;;;;26.23;13.30;;;7.10;65.50;;;;;;5080307;28;20021;-90
2022/01/14 06:19:38;;;;;;;25.85;13.23;;;7.50;64.90;;;;;;5079074;28;20515;-89
2022/01/14 06:22:06;;;;;;;27.85;13.00;;;7.40;64.60;;;;;;5073430;28;20024;-86
2022/01/14 06:24:34;;;;;;;27.58;14.05;;;7.40;64.70;;;;;;5058574;28;20021;-90
2022/01/14 06:27:01;;;;;;;28.85;13.25;;;7.50;64.60;;;;;;5058664;28;20143;-87
2022/01/14 06:29:26;;;;;;;26.27;12.55;;;7.30;64.90;;;;;;5059344;28;20029;-90
2022/01/14 06:31:52;;;;;;;25.85;12.32;;;7.40;65.00;;;;;;5058432;28;20071;-92
2022/01/14 06:34:18;;;;;;;26.42;12.57;;;7.90;63.90;;;;;;5058314;28;20037;-92
2022/01/14 06:36:44;;;;;;;26.88;13.27;;;7.70;63.90;;;;;;5058763;28;20029;-90
2022/01/14 06:39:10;;;;;;;27.27;13.38;;;7.70;63.90;;;;;;5059519;28;20028;-89
2022/01/14 06:41:37;;;;;;;26.88;13.82;;;7.60;64.40;;;;;;5061128;28;20486;-92
2022/01/14 06:44:04;;;;;;;30.02;14.68;;;7.60;64.70;;;;;;5058924;28;20025;-90
2022/01/14 06:46:29;;;;;;;26.45;12.85;;;7.80;64.10;;;;;;5058368;28;20028;-93
2022/01/14 06:48:55;;;;;;;26.25;12.38;;;7.80;63.90;;;;;;5059724;28;20024;-91
2022/01/14 06:51:24;;;;;;;27.35;13.30;;;7.90;63.20;;;;;;5059931;28;20021;-89
2022/01/14 06:53:52;;;;;;;25.40;12.70;;;8.20;62.60;;;;;;5058886;28;20044;-87
2022/01/14 06:56:18;;;;;;;29.10;14.23;;;8.00;63.00;;;;;;5060540;28;20384;-88
2022/01/14 06:58:46;;;;;;;59.47;26.33;;;8.40;61.80;;;;;;5060590;28;20471;-92
2022/01/14 07:01:13;;;;;;;34.90;15.63;;;8.00;62.00;;;;;;5058649;28;20016;-87
2022/01/14 07:03:45;;;;;;;25.35;13.60;;;8.20;62.50;;;;;;5059611;28;20037;-90
2022/01/14 07:06:10;;;;;;;27.20;13.40;;;8.30;61.60;;;;;;5059864;28;20464;-89
2022/01/14 07:08:36;;;;;;;27.20;13.52;;;8.10;62.30;;;;;;5060034;28;20031;-94
2022/01/14 07:11:02;;;;;;;24.35;12.82;;;7.80;63.00;;;;;;5058931;28;20038;-86
2022/01/14 07:13:28;;;;;;;25.42;12.57;;;8.00;62.70;;;;;;5057919;28;20398;-88
2022/01/14 07:15:53;;;;;;;24.85;12.38;;;7.40;63.70;;;;;;5058421;28;20471;-86
2022/01/14 07:18:19;;;;;;;28.17;14.02;;;7.30;63.90;;;;;;5057212;28;20051;-87
2022/01/14 07:20:47;;;;;;;27.63;14.00;;;6.80;65.80;;;;;;5061511;28;20059;-89
2022/01/14 07:23:13;;;;;;;26.30;13.70;;;7.30;64.80;;;;;;5062912;28;20020;-89
2022/01/14 07:25:41;;;;;;;27.27;14.32;;;7.70;63.60;;;;;;5059105;28;20025;-92
2022/01/14 07:28:12;;;;;;;24.55;12.70;;;7.50;63.90;;;;;;5060026;28;20021;-88
2022/01/14 07:30:43;;;;;;;37.20;19.75;;;7.40;64.30;;;;;;5061613;28;20037;-91
2022/01/14 07:33:09;;;;;;;27.65;13.30;;;7.50;64.50;;;;;;5061187;28;20028;-94
2022/01/14 07:35:38;;;;;;;25.67;13.90;;;7.80;63.30;;;;;;5070187;28;20119;-91
2022/01/14 07:38:03;;;;;;;22.70;12.05;;;8.20;63.30;;;;;;5062655;28;20028;-89
2022/01/14 07:40:29;;;;;;;24.30;12.68;;;8.30;62.00;;;;;;5059799;28;20033;-91
2022/01/14 07:42:55;;;;;;;24.33;11.93;;;8.20;62.30;;;;;;5060029;28;20474;-86
2022/01/14 07:45:20;;;;;;;22.73;12.55;;;8.00;62.80;;;;;;5058669;28;20020;-92
2022/01/14 07:47:46;;;;;;;22.45;11.25;;;8.10;63.00;;;;;;5058839;28;20046;-88
2022/01/14 07:50:13;;;;;;;24.08;12.73;;;8.20;62.50;;;;;;5063893;28;20111;-93
2022/01/14 07:52:39;;;;;;;21.88;11.93;;;8.40;62.70;;;;;;5062392;28;20017;-90
2022/01/14 07:55:06;;;;;;;24.90;11.80;;;8.70;61.50;;;;;;5060228;28;20052;-91
2022/01/14 07:57:32;;;;;;;26.85;14.63;;;8.30;62.40;;;;;;5041534;28;20036;-92
2022/01/14 08:00:00;;;;;;;22.45;11.80;;;8.40;61.90;;;;;;5057963;28;20028;-95
2022/01/14 08:02:26;;;;;;;23.50;12.60;;;8.40;61.90;;;;;;5059425;28;20419;-89
2022/01/14 08:04:52;;;;;;;24.83;12.18;;;8.50;62.00;;;;;;5057857;28;20040;-90
2022/01/14 08:07:22;;;;;;;25.77;13.27;;;8.60;61.90;;;;;;5059142;28;20025;-89
2022/01/14 08:09:48;;;;;;;;;;;8.70;61.50;;;;;;5058481;28;20078;-93
2022/01/14 08:12:13;;;;;;;23.35;11.38;;;8.60;61.60;;;;;;5073760;28;19912;-96
2022/01/14 08:14:40;;;;;;;24.70;12.23;;;8.90;61.00;;;;;;5057592;28;20040;-94
2022/01/14 08:17:06;;;;;;;21.95;11.32;;;8.80;61.00;;;;;;5056657;28;20468;-93
2022/01/14 08:19:35;;;;;;;24.63;11.52;;;8.40;62.40;;;;;;5056929;28;20067;-93
2022/01/14 08:22:03;;;;;;;23.23;11.70;;;7.90;63.40;;;;;;5056931;28;20039;-91
2022/01/14 08:24:30;;;;;;;25.83;12.65;;;8.10;62.70;;;;;;5056516;28;20436;-93
2022/01/14 08:26:56;;;;;;;22.02;11.43;;;8.20;62.80;;;;;;5056814;28;20025;-89
2022/01/14 08:29:22;;;;;;;27.10;13.38;;;8.00;62.80;;;;;;5056063;28;20032;-92
2022/01/14 08:31:48;;;;;;;25.25;12.25;;;7.80;64.00;;;;;;5056665;28;20035;-94
2022/01/14 08:34:14;;;;;;;23.67;11.98;;;8.00;63.40;;;;;;5056107;28;20032;-89
2022/01/14 08:36:41;;;;;;;22.63;11.30;;;8.10;63.10;;;;;;5074910;28;20385;-88
2022/01/14 08:39:07;;;;;;;21.20;11.93;;;7.80;63.50;;;;;;5056034;28;20463;-90
2022/01/14 08:41:32;;;;;;;21.60;10.85;;;7.80;64.10;;;;;;5056577;28;20090;-89
2022/01/14 08:43:59;;;;;;;22.15;11.55;;;8.20;63.50;;;;;;5056382;28;20053;-90
2022/01/14 08:46:26;;;;;;;24.75;11.95;;;8.10;63.50;;;;;;5056482;28;20434;-87
2022/01/14 08:48:52;;;;;;;25.15;11.65;;;8.10;63.30;;;;;;5056156;28;20020;-95
2022/01/14 08:51:18;;;;;;;20.90;11.05;;;8.10;63.20;;;;;;5056479;28;20052;-91
2022/01/14 08:53:44;;;;;;;19.48;10.70;;;8.60;62.90;;;;;;5056160;28;20021;-89
2022/01/14 08:56:10;;;;;;;19.10;10.70;;;9.80;60.20;;;;;;5056599;28;20574;-94
2022/01/14 08:58:36;;;;;;;23.48;11.38;;;11.00;57.00;;;;;;5058136;28;20135;-92
2022/01/14 09:01:02;;;;;;;19.25;10.30;;;12.00;55.30;;;;;;5057652;28;20032;-92
2022/01/14 09:03:27;;;;;;;21.08;11.65;;;13.20;53.10;;;;;;5056427;28;20024;-91
2022/01/14 09:05:53;;;;;;;22.67;11.15;;;13.50;52.10;;;;;;5057668;28;20062;-93
2022/01/14 09:08:20;;;;;;;24.40;12.55;;;14.10;51.10;;;;;;5057443;28;20020;-94
2022/01/14 09:10:45;;;;;;;34.55;17.52;;;14.60;50.00;;;;;;5056503;28;20025;-91
2022/01/14 09:13:11;;;;;;;28.33;14.40;;;14.50;50.40;;;;;;5056863;28;20384;-86
2022/01/14 09:15:38;;;;;;;20.83;12.27;;;14.50;49.80;;;;;;5057473;28;20381;-90
2022/01/14 09:18:04;;;;;;;18.60;10.48;;;15.10;49.40;;;;;;5058951;28;20025;-91
2022/01/14 09:20:33;;;;;;;18.88;10.57;;;15.10;48.70;;;;;;5059875;28;20028;-92
2022/01/14 09:22:59;;;;;;;24.45;12.93;;;15.70;48.20;;;;;;5057509;28;20025;-87
2022/01/14 09:25:26;;;;;;;19.70;10.73;;;15.60;47.70;;;;;;5057516;28;20024;-90
2022/01/14 09:27:53;;;;;;;19.27;10.98;;;15.60;48.00;;;;;;5057907;28;20181;-91
2022/01/14 09:30:22;;;;;;;20.02;11.48;;;15.60;48.30;;;;;;5057383;28;20040;-93
2022/01/14 09:32:48;;;;;;;20.63;11.07;;;15.50;48.20;;;;;;5058117;28;20028;-89
2022/01/14 09:35:15;;;;;;;19.08;9.98;;;15.80;47.80;;;;;;5057456;28;20154;-88
2022/01/14 09:37:44;;;;;;;19.20;10.93;;;15.40;47.90;;;;;;5057092;28;20069;-91
2022/01/14 09:40:12;;;;;;;21.38;10.63;;;14.90;48.80;;;;;;5056500;28;20020;-90
2022/01/14 09:42:38;;;;;;;20.08;10.65;;;14.50;49.60;;;;;;5060727;28;20017;-89
2022/01/14 09:45:05;;;;;;;21.08;11.18;;;13.90;50.50;;;;;;5059979;28;20032;-92
2022/01/14 09:47:33;;;;;;;20.48;10.85;;;14.80;49.50;;;;;;5059925;28;20107;-93
2022/01/14 09:49:59;;;;;;;17.60;10.23;;;15.60;48.60;;;;;;5059921;28;20028;-91
2022/01/14 09:52:25;;;;;;;20.13;10.65;;;15.20;48.40;;;;;;5060003;28;20485;-94
2022/01/14 09:54:51;;;;;;;19.63;10.00;;;15.30;48.30;;;;;;5060289;28;20041;-85
2022/01/14 09:57:18;;;;;;;17.70;10.50;;;15.30;48.60;;;;;;5059299;28;20426;-91
2022/01/14 09:59:47;;;;;;;17.65;9.68;;;14.70;49.40;;;;;;5042781;28;20028;-88
2022/01/14 10:02:37;;;;;;;16.55;9.50;;;14.70;49.40;;;;;;5059506;28;20111;-90
2022/01/14 10:05:04;;;;;;;;;;;14.90;49.30;;;;;;5059196;28;20033;-90
2022/01/14 10:07:30;;;;;;;17.33;9.85;;;15.40;49.10;;;;;;5076114;28;19911;-93
2022/01/14 10:10:00;;;;;;;17.88;9.23;;;15.90;48.00;;;;;;5059034;28;20499;-91
2022/01/14 10:12:34;;;;;;;16.65;8.70;;;16.00;47.30;;;;;;5059327;28;20029;-90
2022/01/14 10:15:03;;;;;;;16.98;9.07;;;15.90;48.10;;;;;;5058816;28;20081;-89
2022/01/14 10:17:37;;;;;;;18.40;9.10;;;16.40;47.30;;;;;;5059251;28;20380;-95
2022/01/14 10:20:04;;;;;;;14.05;8.43;;;16.30;47.80;;;;;;5059399;28;20497;-91
2022/01/14 10:22:33;;;;;;;14.95;8.93;;;16.50;47.30;;;;;;5059107;28;20027;-89
2022/01/14 10:25:11;;;;;;;14.98;8.95;;;17.10;46.40;;;;;;5058778;28;20123;-88
2022/01/14 10:27:55;;;;;;;13.98;8.38;;;17.40;46.10;;;;;;5061135;28;20046;-91
2022/01/14 10:30:24;;;;;;;15.50;9.20;;;17.20;46.10;;;;;;5059378;28;20055;-90
2022/01/14 10:33:00;;;;;;;14.80;8.95;;;17.40;45.50;;;;;;5059566;28;20025;-91
2022/01/14 10:35:28;;;;;;;14.57;8.55;;;17.70;45.70;;;;;;5058730;28;20060;-90
2022/01/14 10:38:02;;;;;;;17.92;10.70;;;18.50;44.80;;;;;;5058467;28;20475;-86
2022/01/14 10:40:30;;;;;;;21.15;9.65;;;18.50;44.10;;;;;;5058250;28;20058;-85
2022/01/14 10:43:05;;;;;;;16.80;9.40;;;18.20;44.50;;;;;;5058306;28;20032;-89
2022/01/14 10:45:34;;;;;;;20.98;10.57;;;18.10;45.10;;;;;;5058035;28;20029;-85
2022/01/14 10:48:04;;;;;;;14.70;10.20;;;18.20;44.90;;;;;;5058393;28;20024;-91
2022/01/14 10:50:39;;;;;;;12.50;7.63;;;17.50;45.20;;;;;;5058181;28;20058;-88
2022/01/14 10:53:18;;;;;;;11.57;6.70;;;16.20;46.30;;;;;;5057487;28;20279;-92
2022/01/14 10:56:09;;;;;;;13.27;7.50;;;16.40;47.20;;;;;;5057630;28;20377;-87
2022/01/14 10:58:39;;;;;;;12.02;7.25;;;17.10;46.10;;;;;;5058228;28;20032;-89
2022/01/14 11:01:08;;;;;;;14.07;7.32;;;15.90;47.20;;;;;;5058345;28;20412;-92
2022/01/14 11:03:34;;;;;;;12.23;6.65;;;15.30;47.70;;;;;;5058774;28;20028;-88
2022/01/14 11:06:16;;;;;;;14.80;7.10;;;14.90;48.70;;;;;;5058114;28;20046;-91
2022/01/14 11:08:43;;;;;;;12.68;6.70;;;14.20;49.60;;;;;;5059116;28;20020;-89
2022/01/14 11:11:08;;;;;;;15.30;8.77;;;13.80;50.20;;;;;;5059139;28;20021;-83
2022/01/14 11:13:38;;;;;;;16.80;9.10;;;13.90;50.10;;;;;;5058265;28;20074;-92
2022/01/14 11:16:09;;;;;;;16.23;9.27;;;13.70;50.30;;;;;;5045153;28;20040;-88
2022/01/14 11:18:37;;;;;;;14.40;7.63;;;13.70;50.60;;;;;;5060325;28;20067;-92
2022/01/14 11:23:46;;;;;;;13.32;6.97;;;13.40;50.80;;;;;;5078892;28;20082;-88
2022/01/14 11:26:16;;;;;;;12.13;7.20;;;13.10;51.40;;;;;;5059909;28;20487;-91
2022/01/14 11:28:44;;;;;;;15.60;7.53;;;12.70;51.90;;;;;;5057342;28;20058;-89
2022/01/14 11:31:31;;;;;;;12.90;7.35;;;12.10;53.10;;;;;;5058675;28;20099;-85
2022/01/14 11:33:59;;;;;;;12.80;7.82;;;11.60;54.10;;;;;;5057390;28;20032;-93
2022/01/14 11:36:45;;;;;;;17.33;7.78;;;11.20;54.80;;;;;;5058898;28;20031;-90
2022/01/14 11:39:25;;;;;;;18.63;9.82;;;11.10;55.30;;;;;;5059181;28;20376;-87
2022/01/14 11:42:00;;;;;;;14.25;7.28;;;11.00;55.40;;;;;;5061605;28;20025;-91
2022/01/14 11:44:41;;;;;;;20.65;11.15;;;10.90;55.70;;;;;;5059509;28;20036;-88
2022/01/14 11:47:29;;;;;;;28.33;17.33;;;11.40;55.50;;;;;;5059533;28;20116;-89
2022/01/14 11:49:56;;;;;;;27.08;17.33;;;11.80;54.30;;;;;;5061243;28;20033;-89
2022/01/14 11:52:42;;;;;;;17.55;10.30;;;11.70;54.30;;;;;;5060540;28;20032;-87
2022/01/14 11:55:23;;;;;;;18.23;10.45;;;11.90;53.90;;;;;;5057677;28;20052;-88
2022/01/14 11:57:59;;;;;;;14.82;8.60;;;11.50;54.70;;;;;;5060070;28;20012;-89
2022/01/14 12:00:25;;;;;;;13.43;7.50;;;11.60;54.60;;;;;;5058775;28;20503;-88
2022/01/14 12:02:52;;;;;;;24.67;13.70;;;11.50;54.50;;;;;;5058305;28;20059;-93
2022/01/14 12:05:20;;;;;;;20.92;12.35;;;11.50;54.60;;;;;;5057844;28;20116;-88
2022/01/14 12:08:02;;;;;;;18.42;10.18;;;11.20;55.20;;;;;;5057242;28;20111;-88
2022/01/14 12:10:35;;;;;;;16.02;8.68;;;11.50;55.30;;;;;;5057877;28;20540;-87
2022/01/14 12:13:49;;;;;;;17.70;10.75;;;11.80;54.70;;;;;;5057091;28;20031;-85
2022/01/14 12:16:19;;;;;;;15.65;8.52;;;11.50;54.60;;;;;;4992791;28;20038;-88
2022/01/14 12:18:57;;;;;;;20.27;11.75;;;11.30;54.80;;;;;;4977616;28;20065;-88
2022/01/14 12:21:40;;;;;;;19.17;11.15;;;11.30;55.30;;;;;;4977154;28;20034;-88
2022/01/14 12:24:18;;;;;;;21.05;12.38;;;11.10;55.50;;;;;;4976705;28;20023;-90
2022/01/14 12:27:04;;;;;;;17.98;11.27;;;11.50;55.20;;;;;;4976539;28;20056;-88
2022/01/14 12:29:46;;;;;;;13.65;8.40;;;11.50;54.90;;;;;;4970436;28;20073;-89
2022/01/14 12:32:16;;;;;;;16.42;8.52;;;11.50;54.80;;;;;;4977553;28;20034;-93
2022/01/14 12:34:44;;;;;;;13.40;7.87;;;11.50;54.90;;;;;;4977705;28;20173;-92
2022/01/14 12:37:15;;;;;;;14.60;8.00;;;11.80;54.40;;;;;;4977779;28;20433;-88
2022/01/14 12:39:46;;;;;;;11.98;6.88;;;11.80;54.60;;;;;;4978331;28;20027;-88
2022/01/14 12:42:12;;;;;;;13.30;7.75;;;11.90;54.10;;;;;;4977028;28;20077;-87
2022/01/14 12:44:41;;;;;;;13.88;7.30;;;11.20;55.10;;;;;;4976820;28;20026;-88
2022/01/14 12:47:18;;;;;;;12.13;7.20;;;10.80;56.40;;;;;;4993309;28;20050;-88
2022/01/14 12:49:43;;;;;;;13.55;7.00;;;10.80;56.40;;;;;;4976672;28;20504;-83
2022/01/14 12:52:14;;;;;;;13.02;7.22;;;10.90;56.20;;;;;;4995217;28;20033;-83
2022/01/14 12:54:42;;;;;;;13.00;7.30;;;11.00;56.10;;;;;;5056343;28;20037;-89
2022/01/14 12:57:08;;;;;;;13.02;8.07;;;10.80;56.00;;;;;;5055914;28;20032;-85
2022/01/14 12:59:42;;;;;;;13.70;7.32;;;10.50;56.70;;;;;;5056069;28;20390;-90
2022/01/14 13:02:08;;;;;;;15.32;8.63;;;10.60;56.90;;;;;;5056094;28;20112;-86
2022/01/14 13:04:34;;;;;;;14.07;8.68;;;10.70;56.70;;;;;;5056157;28;20025;-86
2022/01/14 13:07:02;;;;;;;14.77;7.75;;;10.70;56.90;;;;;;5056371;28;20039;-90
2022/01/14 13:09:31;;;;;;;14.07;7.68;;;11.00;56.40;;;;;;5056088;28;20021;-92
2022/01/14 13:12:06;;;;;;;17.65;8.15;;;11.00;56.00;;;;;;5056439;28;20032;-85
2022/01/14 13:14:37;;;;;;;14.65;8.10;;;10.90;56.30;;;;;;5056497;28;20032;-84
2022/01/14 13:17:14;;;;;;;14.75;8.32;;;11.00;56.00;;;;;;5059432;28;20052;-90